createdAt,value
2023-02-20T00:01:07.484Z,2.11
2023-02-20T00:03:35.285Z,2.09
2023-02-20T00:06:03.154Z,2.11
2023-02-20T00:08:32.234Z,2.09
2023-02-20T00:11:00.075Z,2.12
2023-02-20T00:13:27.796Z,2.08
2023-02-20T00:15:55.664Z,2.10
2023-02-20T00:18:23.730Z,2.13
2023-02-20T00:20:51.462Z,2.12
2023-02-20T00:23:19.713Z,2.07
2023-02-20T00:25:48.878Z,2.04
2023-02-20T00:28:16.657Z,2.07
2023-02-20T00:30:44.404Z,2.07
2023-02-20T00:33:14.024Z,2.06
2023-02-20T00:35:41.795Z,2.02
2023-02-20T00:38:09.527Z,1.97
2023-02-20T00:40:37.290Z,2.00
2023-02-20T00:43:06.440Z,1.97
2023-02-20T00:45:34.249Z,1.97
2023-02-20T00:48:02.054Z,2.10
2023-02-20T00:50:29.924Z,2.13
2023-02-20T00:52:57.742Z,2.21
2023-02-20T00:55:25.613Z,2.30
2023-02-20T00:57:53.447Z,2.33
2023-02-20T01:00:26.255Z,2.45
2023-02-20T01:02:54.094Z,2.46
2023-02-20T01:05:22.121Z,2.47
2023-02-20T01:07:50.003Z,2.53
2023-02-20T01:10:18.802Z,2.61
2023-02-20T01:12:48.014Z,2.65
2023-02-20T01:15:16.617Z,2.68
2023-02-20T01:17:45.724Z,2.70
2023-02-20T01:20:13.621Z,2.75
2023-02-20T01:22:43.018Z,2.73
2023-02-20T01:25:10.749Z,2.80
2023-02-20T01:27:39.989Z,2.87
2023-02-20T01:30:09.149Z,2.90
2023-02-20T01:32:37.093Z,2.92
2023-02-20T01:35:06.971Z,2.97
2023-02-20T01:37:34.708Z,2.99
2023-02-20T01:40:02.398Z,3.02
2023-02-20T01:42:34.029Z,2.99
2023-02-20T01:45:29.130Z,3.07
2023-02-20T01:47:58.451Z,3.10
2023-02-20T01:50:32.869Z,3.19
2023-02-20T01:53:06.986Z,3.20
2023-02-20T01:55:39.535Z,3.14
2023-02-20T01:58:11.994Z,3.18
2023-02-20T02:00:40.504Z,3.26
2023-02-20T02:03:11.053Z,3.26
2023-02-20T02:05:43.238Z,3.26
2023-02-20T02:08:13.756Z,3.25
2023-02-20T02:10:50.355Z,3.23
2023-02-20T02:13:18.527Z,3.23
2023-02-20T02:15:46.302Z,3.33
2023-02-20T02:18:34.643Z,3.29
2023-02-20T02:21:32.596Z,3.22
2023-02-20T02:24:42.766Z,3.25
2023-02-20T02:27:48.074Z,3.29
2023-02-20T02:30:52.547Z,3.21
2023-02-20T02:33:50.157Z,3.23
2023-02-20T02:36:38.115Z,3.27
2023-02-20T02:39:17.219Z,3.28
2023-02-20T02:41:53.359Z,3.32
2023-02-20T02:44:25.693Z,3.35
2023-02-20T02:46:58.218Z,3.31
2023-02-20T02:49:31.299Z,3.36
2023-02-20T02:52:02.448Z,3.35
2023-02-20T02:54:30.940Z,3.39
2023-02-20T02:57:19.455Z,3.41
2023-02-20T02:59:51.052Z,3.42
2023-02-20T03:02:20.391Z,3.50
2023-02-20T03:04:51.663Z,3.56
2023-02-20T03:07:21.952Z,3.61
2023-02-20T03:09:53.485Z,3.60
2023-02-20T03:12:23.350Z,3.67
2023-02-20T03:15:16.544Z,3.73
2023-02-20T03:17:49.468Z,3.74
2023-02-20T03:20:22.140Z,3.79
2023-02-20T03:22:55.374Z,3.79
2023-02-20T03:25:29.204Z,3.84
2023-02-20T03:28:00.593Z,3.87
2023-02-20T03:30:31.862Z,3.86
2023-02-20T03:33:23.410Z,3.98
2023-02-20T03:36:13.063Z,4.02
2023-02-20T03:39:02.353Z,4.01
2023-02-20T03:41:50.692Z,4.07
2023-02-20T03:44:19.703Z,4.11
2023-02-20T03:46:49.566Z,4.21
2023-02-20T03:49:22.255Z,4.23
2023-02-20T03:51:49.136Z,4.36
2023-02-20T03:54:19.860Z,4.32
2023-02-20T03:56:55.686Z,4.37
2023-02-20T03:59:28.266Z,4.42
2023-02-20T04:01:58.910Z,4.42
2023-02-20T04:04:31.926Z,4.45
2023-02-20T04:07:03.405Z,4.44
2023-02-20T04:09:38.009Z,4.42
2023-02-20T04:12:12.729Z,4.53
2023-02-20T04:14:41.142Z,4.58
2023-02-20T04:17:13.293Z,4.54
2023-02-20T04:19:41.315Z,4.54
2023-02-20T04:22:15.257Z,4.59
2023-02-20T04:24:48.181Z,4.65
2023-02-20T04:27:16.106Z,4.69
2023-02-20T04:29:44.058Z,4.70
2023-02-20T04:32:11.879Z,4.70
2023-02-20T04:34:39.810Z,4.72
2023-02-20T04:37:10.558Z,4.64
2023-02-20T04:39:38.477Z,4.68
2023-02-20T04:42:08.068Z,4.73
2023-02-20T04:44:36.674Z,4.74
2023-02-20T04:47:06.816Z,4.73
2023-02-20T04:49:34.565Z,4.74
2023-02-20T04:52:02.323Z,4.79
2023-02-20T04:54:30.106Z,4.84
2023-02-20T04:56:57.851Z,4.89
2023-02-20T04:59:26.991Z,4.93
2023-02-20T05:01:56.318Z,4.93
2023-02-20T05:04:24.142Z,4.93
2023-02-20T05:06:53.950Z,4.90
2023-02-20T05:09:22.926Z,4.94
2023-02-20T05:11:50.810Z,5.02
2023-02-20T05:14:19.092Z,5.03
2023-02-20T05:16:49.130Z,4.97
2023-02-20T05:19:16.866Z,4.95
2023-02-20T05:22:02.987Z,4.98
2023-02-20T05:24:31.694Z,5.03
2023-02-20T05:26:59.922Z,5.01
2023-02-20T05:29:27.916Z,5.02
2023-02-20T05:31:57.005Z,4.98
2023-02-20T05:34:25.909Z,5.03
2023-02-20T05:36:54.518Z,5.04
2023-02-20T05:39:22.526Z,5.01
2023-02-20T05:41:50.360Z,5.00
2023-02-20T05:44:18.151Z,5.05
2023-02-20T05:46:45.956Z,5.10
2023-02-20T05:49:15.120Z,5.12
2023-02-20T05:51:42.851Z,5.09
2023-02-20T05:54:10.581Z,5.09
2023-02-20T05:56:42.840Z,5.07
2023-02-20T05:59:10.958Z,5.08
2023-02-20T06:01:39.075Z,5.09
2023-02-20T06:04:07.263Z,5.05
2023-02-20T06:06:38.493Z,5.07
2023-02-20T06:09:08.493Z,5.16
2023-02-20T06:11:36.571Z,5.11
2023-02-20T06:14:04.858Z,5.14
2023-02-20T06:16:33.723Z,5.15
2023-02-20T06:19:01.563Z,5.18
2023-02-20T06:21:30.514Z,5.13
2023-02-20T06:23:59.686Z,5.14
2023-02-20T06:26:27.483Z,5.15
2023-02-20T06:28:57.573Z,5.13
2023-02-20T06:31:27.220Z,5.13
2023-02-20T06:33:55.682Z,5.16
2023-02-20T06:36:25.765Z,5.20
2023-02-20T06:38:55.235Z,5.16
2023-02-20T06:41:25.887Z,5.18
2023-02-20T06:43:53.755Z,5.19
2023-02-20T06:46:22.671Z,5.24
2023-02-20T06:48:52.359Z,5.28
2023-02-20T06:51:21.173Z,5.28
2023-02-20T06:53:49.980Z,5.24
2023-02-20T06:56:19.912Z,5.24
2023-02-20T06:58:50.741Z,5.20
2023-02-20T07:01:20.267Z,5.26
2023-02-20T07:03:53.473Z,5.31
2023-02-20T07:06:21.177Z,5.36
2023-02-20T07:08:49.027Z,5.43
2023-02-20T07:11:21.008Z,5.45
2023-02-20T07:13:50.511Z,5.45
2023-02-20T07:16:18.561Z,5.52
2023-02-20T07:18:46.353Z,5.58
2023-02-20T07:21:14.092Z,5.63
2023-02-20T07:23:42.010Z,5.61
2023-02-20T07:26:18.753Z,5.66
2023-02-20T07:28:46.576Z,5.72
2023-02-20T07:31:15.951Z,5.74
2023-02-20T07:33:44.029Z,5.79
2023-02-20T07:36:12.382Z,5.86
2023-02-20T07:38:40.412Z,5.80
2023-02-20T07:41:09.001Z,5.81
2023-02-20T07:43:36.813Z,5.80
2023-02-20T07:46:04.833Z,5.88
2023-02-20T07:48:34.583Z,5.93
2023-02-20T07:51:02.338Z,6.02
2023-02-20T07:53:30.123Z,6.01
2023-02-20T07:55:57.829Z,6.10
2023-02-20T07:58:27.999Z,6.07
2023-02-20T08:00:58.757Z,6.12
2023-02-20T08:03:26.506Z,6.13
2023-02-20T08:05:55.616Z,6.18
2023-02-20T08:08:24.508Z,6.20
2023-02-20T08:11:03.560Z,6.20
2023-02-20T08:13:35.905Z,6.23
2023-02-20T08:16:03.700Z,6.28
2023-02-20T08:18:31.451Z,6.30
2023-02-20T08:21:00.584Z,6.34
2023-02-20T08:23:28.337Z,6.39
2023-02-20T08:25:56.144Z,6.42
2023-02-20T08:28:24.065Z,6.45
2023-02-20T08:30:52.033Z,6.49
2023-02-20T08:33:19.809Z,6.54
2023-02-20T08:35:48.615Z,6.54
2023-02-20T08:38:30.689Z,6.61
2023-02-20T08:40:58.687Z,6.65
2023-02-20T08:43:28.142Z,6.69
2023-02-20T08:45:56.538Z,6.74
2023-02-20T08:48:24.507Z,6.80
2023-02-20T08:50:52.698Z,6.84
2023-02-20T08:53:20.637Z,6.91
2023-02-20T08:55:50.126Z,7.04
2023-02-20T08:58:20.587Z,7.12
2023-02-20T09:00:48.561Z,7.11
2023-02-20T09:03:16.496Z,7.22
2023-02-20T09:05:44.644Z,7.36
2023-02-20T09:08:12.565Z,7.36
2023-02-20T09:10:40.644Z,7.40
2023-02-20T09:13:09.905Z,7.49
2023-02-20T09:15:39.769Z,7.57
2023-02-20T09:18:09.808Z,7.69
2023-02-20T09:20:38.563Z,7.79
2023-02-20T09:23:06.868Z,7.86
2023-02-20T09:25:35.871Z,7.77
2023-02-20T09:28:03.905Z,7.93
2023-02-20T09:30:33.399Z,7.94
2023-02-20T09:33:01.180Z,8.04
2023-02-20T09:35:30.902Z,8.02
2023-02-20T09:37:59.022Z,8.10
2023-02-20T09:40:30.065Z,8.11
2023-02-20T09:43:13.754Z,8.16
2023-02-20T09:45:49.686Z,8.33
2023-02-20T09:48:29.812Z,8.31
2023-02-20T09:51:00.912Z,8.42
2023-02-20T09:53:34.163Z,8.43
2023-02-20T09:56:02.787Z,8.42
2023-02-20T09:58:42.624Z,8.55
2023-02-20T10:01:14.446Z,8.60
2023-02-20T10:03:54.116Z,8.67
2023-02-20T10:06:25.697Z,8.65
2023-02-20T10:08:54.333Z,8.67
2023-02-20T10:11:37.461Z,8.74
2023-02-20T10:14:26.665Z,8.86
2023-02-20T10:17:05.014Z,8.93
2023-02-20T10:19:40.566Z,9.11
2023-02-20T10:22:14.562Z,9.23
2023-02-20T10:24:53.957Z,9.30
2023-02-20T10:27:30.700Z,9.28
2023-02-20T10:30:00.544Z,9.30
2023-02-20T10:32:35.390Z,9.41
2023-02-20T10:35:07.731Z,9.48
2023-02-20T10:37:47.579Z,9.52
2023-02-20T10:40:22.260Z,9.58
2023-02-20T10:42:56.033Z,9.62
2023-02-20T10:45:31.154Z,9.70
2023-02-20T10:48:06.317Z,9.78
2023-02-20T10:50:40.151Z,9.72
2023-02-20T10:53:20.444Z,9.74
2023-02-20T10:55:53.199Z,9.57
2023-02-20T10:58:27.837Z,9.57
2023-02-20T11:00:59.587Z,9.57
2023-02-20T11:03:35.870Z,9.54
2023-02-20T11:06:07.322Z,9.55
2023-02-20T11:08:35.043Z,9.61
2023-02-20T11:11:21.455Z,9.66
2023-02-20T11:13:49.198Z,9.70
2023-02-20T11:16:23.841Z,9.65
2023-02-20T11:19:00.466Z,9.56
2023-02-20T11:21:37.513Z,9.46
2023-02-20T11:24:20.147Z,9.38
2023-02-20T11:26:52.048Z,9.29
2023-02-20T11:29:23.217Z,9.25
2023-02-20T11:31:51.096Z,9.27
2023-02-20T11:34:22.976Z,9.20
2023-02-20T11:36:53.330Z,9.18
2023-02-20T11:39:24.893Z,9.19
2023-02-20T11:42:07.575Z,9.14
2023-02-20T11:44:35.428Z,9.14
2023-02-20T11:47:28.001Z,9.21
2023-02-20T11:50:20.431Z,9.12
2023-02-20T11:53:05.081Z,9.11
2023-02-20T11:55:33.811Z,9.12
2023-02-20T11:58:04.435Z,9.13
2023-02-20T12:00:50.059Z,9.20
2023-02-20T12:03:24.047Z,9.25
2023-02-20T12:05:53.796Z,9.25
2023-02-20T12:08:32.754Z,9.25
2023-02-20T12:11:04.044Z,9.26
2023-02-20T12:13:36.369Z,9.26
2023-02-20T12:16:19.633Z,9.24
2023-02-20T12:18:52.909Z,9.33
2023-02-20T12:21:33.066Z,9.29
2023-02-20T12:24:14.001Z,9.17
2023-02-20T12:26:59.301Z,9.20
2023-02-20T12:29:39.276Z,9.14
2023-02-20T12:32:33.796Z,9.14
2023-02-20T12:35:27.067Z,9.16
2023-02-20T12:38:15.129Z,9.11
2023-02-20T12:40:55.929Z,9.06
2023-02-20T12:43:34.391Z,9.01
2023-02-20T12:46:11.198Z,9.00
2023-02-20T12:48:52.313Z,8.97
2023-02-20T12:51:29.536Z,8.97
2023-02-20T12:54:14.737Z,8.91
2023-02-20T12:56:54.199Z,8.90
2023-02-20T12:59:28.946Z,8.95
2023-02-20T13:01:57.574Z,8.87
2023-02-20T13:04:31.731Z,8.83
2023-02-20T13:07:06.738Z,8.80
2023-02-20T13:09:41.097Z,8.81
2023-02-20T13:12:13.995Z,8.78
2023-02-20T13:14:56.908Z,8.70
2023-02-20T13:17:33.743Z,8.62
2023-02-20T13:20:11.795Z,8.54
2023-02-20T13:22:39.603Z,8.47
2023-02-20T13:25:39.387Z,8.51
2023-02-20T13:28:23.584Z,8.48
2023-02-20T13:31:10.425Z,8.45
2023-02-20T13:33:39.243Z,8.43
2023-02-20T13:36:08.179Z,8.45
2023-02-20T13:38:36.020Z,8.45
2023-02-20T13:41:11.998Z,8.41
2023-02-20T13:43:40.233Z,8.44
2023-02-20T13:46:22.495Z,8.52
2023-02-20T13:48:52.187Z,8.48
2023-02-20T13:51:33.473Z,8.52
2023-02-20T13:54:13.426Z,8.54
2023-02-20T13:56:48.574Z,8.58
2023-02-20T13:59:19.201Z,8.61
2023-02-20T14:01:58.408Z,8.65
2023-02-20T14:04:26.742Z,8.65
2023-02-20T14:06:58.800Z,8.65
2023-02-20T14:09:32.148Z,8.71
2023-02-20T14:12:08.515Z,8.76
2023-02-20T14:14:42.415Z,8.79
2023-02-20T14:17:15.872Z,8.82
2023-02-20T14:19:45.875Z,8.83
2023-02-20T14:22:26.283Z,8.85
2023-02-20T14:25:22.675Z,8.93
2023-02-20T14:27:52.529Z,8.92
2023-02-20T14:30:22.431Z,8.93
2023-02-20T14:32:52.375Z,8.95
2023-02-20T14:35:52.702Z,9.00
2023-02-20T14:38:38.317Z,8.96
2023-02-20T14:41:13.167Z,8.94
2023-02-20T14:43:42.401Z,8.91
2023-02-20T14:46:23.123Z,8.92
2023-02-20T14:48:54.033Z,8.90
2023-02-20T14:51:25.476Z,8.94
2023-02-20T14:53:59.341Z,8.90
2023-02-20T14:56:27.512Z,8.90
2023-02-20T14:58:56.729Z,8.89
2023-02-20T15:01:39.048Z,8.87
2023-02-20T15:04:13.478Z,8.90
2023-02-20T15:06:44.164Z,8.86
2023-02-20T15:09:22.463Z,8.90
2023-02-20T15:11:54.014Z,8.88
2023-02-20T15:14:26.502Z,8.88
2023-02-20T15:17:23.151Z,8.87
2023-02-20T15:19:52.168Z,8.87
2023-02-20T15:22:30.336Z,8.78
2023-02-20T15:25:15.224Z,8.74
2023-02-20T15:28:04.585Z,8.74
2023-02-20T15:30:34.085Z,8.71
2023-02-20T15:33:02.087Z,8.69
2023-02-20T15:35:32.503Z,8.65
2023-02-20T15:38:03.438Z,8.66
2023-02-20T15:40:32.936Z,8.64
2023-02-20T15:43:04.988Z,8.60
2023-02-20T15:45:42.436Z,8.61
2023-02-20T15:48:11.457Z,8.59
2023-02-20T15:50:39.220Z,8.60
2023-02-20T15:53:08.594Z,8.55
2023-02-20T15:55:37.052Z,8.53
2023-02-20T15:58:25.244Z,8.53
2023-02-20T16:00:56.743Z,8.53
2023-02-20T16:03:26.190Z,8.53
2023-02-20T16:05:54.702Z,8.57
2023-02-20T16:08:23.370Z,8.50
2023-02-20T16:10:51.980Z,8.46
2023-02-20T16:13:27.415Z,8.40
2023-02-20T16:15:57.006Z,8.40
2023-02-20T16:18:25.208Z,8.40
2023-02-20T16:20:53.296Z,8.40
2023-02-20T16:23:21.088Z,8.40
2023-02-20T16:25:48.847Z,8.39
2023-02-20T16:28:16.730Z,8.37
2023-02-20T16:30:46.129Z,8.33
2023-02-20T16:33:19.158Z,8.30
2023-02-20T16:35:48.232Z,8.26
2023-02-20T16:38:16.257Z,8.26
2023-02-20T16:40:44.222Z,8.24
2023-02-20T16:43:13.718Z,8.26
2023-02-20T16:45:43.381Z,8.29
2023-02-20T16:48:17.497Z,8.29
2023-02-20T16:50:46.948Z,8.28
2023-02-20T16:53:14.691Z,8.26
2023-02-20T16:55:44.312Z,8.30
2023-02-20T16:58:12.622Z,8.26
2023-02-20T17:00:55.158Z,8.24
2023-02-20T17:03:27.673Z,8.22
2023-02-20T17:05:59.559Z,8.25
2023-02-20T17:08:28.113Z,8.26
2023-02-20T17:10:56.443Z,8.23
2023-02-20T17:13:24.255Z,8.23
2023-02-20T17:15:52.034Z,8.25
2023-02-20T17:18:19.905Z,8.25
2023-02-20T17:20:49.357Z,8.22
2023-02-20T17:23:17.196Z,8.21
2023-02-20T17:25:44.886Z,8.21
2023-02-20T17:28:12.778Z,8.18
2023-02-20T17:30:40.737Z,8.14
2023-02-20T17:33:08.817Z,8.15
2023-02-20T17:35:36.587Z,8.14
2023-02-20T17:38:05.801Z,8.11
2023-02-20T17:40:33.677Z,8.09
2023-02-20T17:43:01.446Z,8.06
2023-02-20T17:45:29.351Z,8.04
2023-02-20T17:47:57.259Z,8.05
2023-02-20T17:50:25.324Z,8.02
2023-02-20T17:52:54.500Z,8.03
2023-02-20T17:55:26.514Z,8.02
2023-02-20T17:57:54.666Z,8.00
2023-02-20T18:00:22.935Z,8.02
2023-02-20T18:02:50.963Z,7.98
2023-02-20T18:05:18.628Z,8.00
2023-02-20T18:07:46.451Z,7.98
2023-02-20T18:10:14.348Z,7.95
2023-02-20T18:12:43.580Z,7.98
2023-02-20T18:15:11.800Z,7.98
2023-02-20T18:17:39.528Z,8.01
2023-02-20T18:20:07.781Z,8.02
2023-02-20T18:22:35.593Z,7.99
2023-02-20T18:25:03.574Z,7.99
2023-02-20T18:27:31.416Z,7.97
2023-02-20T18:30:00.881Z,7.96
2023-02-20T18:32:28.963Z,7.99
2023-02-20T18:34:56.806Z,7.98
2023-02-20T18:37:24.675Z,7.96
2023-02-20T18:39:52.567Z,7.97
2023-02-20T18:42:20.487Z,7.95
2023-02-20T18:44:49.261Z,7.97
2023-02-20T18:47:18.457Z,7.97
2023-02-20T18:49:48.656Z,7.97
2023-02-20T18:52:16.747Z,7.99
2023-02-20T18:54:44.488Z,7.98
2023-02-20T18:57:12.291Z,7.98
2023-02-20T18:59:41.736Z,7.97
2023-02-20T19:02:14.194Z,7.96
2023-02-20T19:04:43.794Z,7.99
2023-02-20T19:07:11.552Z,8.01
2023-02-20T19:09:39.729Z,7.98
2023-02-20T19:12:08.583Z,7.97
2023-02-20T19:14:37.441Z,7.98
2023-02-20T19:17:05.284Z,8.01
2023-02-20T19:19:34.450Z,8.01
2023-02-20T19:22:03.912Z,8.01
2023-02-20T19:24:31.640Z,8.02
2023-02-20T19:26:59.532Z,8.03
2023-02-20T19:29:27.398Z,8.03
2023-02-20T19:31:55.411Z,8.02
2023-02-20T19:34:23.338Z,8.07
2023-02-20T19:36:51.063Z,8.05
2023-02-20T19:39:20.196Z,8.05
2023-02-20T19:41:49.800Z,8.07
2023-02-20T19:44:18.081Z,8.05
2023-02-20T19:46:45.852Z,8.06
2023-02-20T19:49:13.794Z,8.09
2023-02-20T19:51:47.608Z,8.08
2023-02-20T19:54:15.908Z,8.10
2023-02-20T19:56:54.700Z,8.10
2023-02-20T19:59:22.788Z,8.12
2023-02-20T20:01:52.029Z,8.14
2023-02-20T20:04:20.554Z,8.17
2023-02-20T20:06:48.660Z,8.18
2023-02-20T20:09:30.280Z,8.21
2023-02-20T20:12:04.381Z,8.18
2023-02-20T20:14:32.377Z,8.20
2023-02-20T20:17:02.679Z,8.20
2023-02-20T20:19:30.530Z,8.23
2023-02-20T20:21:58.329Z,8.23
2023-02-20T20:24:26.005Z,8.22
2023-02-20T20:26:53.743Z,8.23
2023-02-20T20:29:22.900Z,8.26
2023-02-20T20:31:50.647Z,8.25
2023-02-20T20:34:20.503Z,8.29
2023-02-20T20:36:48.287Z,8.31
2023-02-20T20:39:17.408Z,8.33
2023-02-20T20:41:46.159Z,8.32
2023-02-20T20:44:14.569Z,8.32
2023-02-20T20:46:43.716Z,8.35
2023-02-20T20:49:12.459Z,8.39
2023-02-20T20:51:42.050Z,8.37
2023-02-20T20:54:10.255Z,8.36
2023-02-20T20:56:38.287Z,8.36
2023-02-20T20:59:07.461Z,8.40
2023-02-20T21:01:35.238Z,8.40
2023-02-20T21:04:04.453Z,8.39
2023-02-20T21:06:32.202Z,8.40
2023-02-20T21:08:59.976Z,8.41
2023-02-20T21:11:27.728Z,8.42
2023-02-20T21:13:55.732Z,8.42
2023-02-20T21:16:23.604Z,8.47
2023-02-20T21:18:51.562Z,8.48
2023-02-20T21:21:26.214Z,8.46
2023-02-20T21:23:54.075Z,8.46
2023-02-20T21:26:22.230Z,8.47
2023-02-20T21:28:50.740Z,8.49
2023-02-20T21:31:20.670Z,8.50
2023-02-20T21:33:50.417Z,8.50
2023-02-20T21:36:20.479Z,8.50
2023-02-20T21:38:48.375Z,8.51
2023-02-20T21:41:34.131Z,8.53
2023-02-20T21:44:19.116Z,8.54
2023-02-20T21:46:46.841Z,8.60
2023-02-20T21:49:14.634Z,8.60
2023-02-20T21:51:43.905Z,8.62
2023-02-20T21:54:11.662Z,8.60
2023-02-20T21:56:39.492Z,8.61
2023-02-20T21:59:06.525Z,8.60
2023-02-20T22:01:36.187Z,8.60
2023-02-20T22:04:04.040Z,8.58
2023-02-20T22:06:31.218Z,8.57
2023-02-20T22:09:18.174Z,8.54
2023-02-20T22:12:03.678Z,8.55
2023-02-20T22:14:48.997Z,8.57
2023-02-20T22:17:35.007Z,8.54
2023-02-20T22:20:20.744Z,8.52
2023-02-20T22:23:05.722Z,8.50
2023-02-20T22:25:52.455Z,8.51
2023-02-20T22:28:37.693Z,8.54
2023-02-20T22:31:24.012Z,8.52
2023-02-20T22:34:09.258Z,8.53
2023-02-20T22:36:54.611Z,8.50
2023-02-20T22:39:39.972Z,8.48
2023-02-20T22:42:34.586Z,8.50
2023-02-20T22:45:20.527Z,8.51
2023-02-20T22:48:05.959Z,8.52
2023-02-20T22:50:51.292Z,8.51
2023-02-20T22:53:36.540Z,8.51
2023-02-20T22:56:21.892Z,8.51
2023-02-20T22:59:08.712Z,8.51
2023-02-20T23:01:54.036Z,8.52
2023-02-20T23:04:39.577Z,8.54
2023-02-20T23:07:24.880Z,8.51
2023-02-20T23:10:10.374Z,8.54
2023-02-20T23:12:55.709Z,8.51
2023-02-20T23:15:42.161Z,8.56
2023-02-20T23:18:27.825Z,8.53
2023-02-20T23:21:13.520Z,8.55
2023-02-20T23:23:59.108Z,8.59
2023-02-20T23:26:44.636Z,8.57
2023-02-20T23:29:29.997Z,8.57
2023-02-20T23:32:17.030Z,8.61
2023-02-20T23:35:02.027Z,8.58
2023-02-20T23:37:47.290Z,8.59
2023-02-20T23:40:36.722Z,8.60
2023-02-20T23:43:22.537Z,8.60
2023-02-20T23:46:08.034Z,8.60
2023-02-20T23:48:55.513Z,8.59
2023-02-20T23:51:40.834Z,8.60
2023-02-20T23:54:26.738Z,8.59
2023-02-20T23:57:12.119Z,8.57
2023-02-20T23:59:57.367Z,8.59
